Map

Track Data

SID SEASON NUMBER BASIN SUBBASIN NAME ISO_TIME NATURE LAT LON WMO_WIND WMO_PRES WMO_AGENCY TRACK_TYPE DIST2LAND LANDFALL IFLAG USA_AGENCY USA_ATCF_ID USA_LAT USA_LON USA_RECORD USA_STATUS USA_WIND USA_PRES USA_SSHS USA_R34_NE USA_R34_SE USA_R34_SW USA_R34_NW USA_R50_NE USA_R50_SE USA_R50_SW USA_R50_NW USA_R64_NE USA_R64_SE USA_R64_SW USA_R64_NW USA_POCI USA_ROCI USA_RMW USA_EYE TOKYO_LAT TOKYO_LON TOKYO_GRADE TOKYO_WIND TOKYO_PRES TOKYO_R50_DIR TOKYO_R50_LONG TOKYO_R50_SHORT TOKYO_R30_DIR TOKYO_R30_LONG TOKYO_R30_SHORT TOKYO_LAND CMA_LAT CMA_LON CMA_CAT CMA_WIND CMA_PRES HKO_LAT HKO_LON HKO_CAT HKO_WIND HKO_PRES NEWDELHI_LAT NEWDELHI_LON NEWDELHI_GRADE NEWDELHI_WIND NEWDELHI_PRES NEWDELHI_CI NEWDELHI_DP NEWDELHI_POCI REUNION_LAT REUNION_LON REUNION_TYPE REUNION_WIND REUNION_PRES REUNION_TNUM REUNION_CI REUNION_RMW REUNION_R34_NE REUNION_R34_SE REUNION_R34_SW REUNION_R34_NW REUNION_R50_NE REUNION_R50_SE REUNION_R50_SW REUNION_R50_NW REUNION_R64_NE REUNION_R64_SE REUNION_R64_SW REUNION_R64_NW BOM_LAT BOM_LON BOM_TYPE BOM_WIND BOM_PRES BOM_TNUM BOM_CI BOM_RMW BOM_R34_NE BOM_R34_SE BOM_R34_SW BOM_R34_NW BOM_R50_NE BOM_R50_SE BOM_R50_SW BOM_R50_NW BOM_R64_NE BOM_R64_SE BOM_R64_SW BOM_R64_NW BOM_ROCI BOM_POCI BOM_EYE BOM_POS_METHOD BOM_PRES_METHOD NADI_LAT NADI_LON NADI_CAT NADI_WIND NADI_PRES WELLINGTON_LAT WELLINGTON_LON WELLINGTON_WIND WELLINGTON_PRES DS824_LAT DS824_LON DS824_STAGE DS824_WIND DS824_PRES TD9636_LAT TD9636_LON TD9636_STAGE TD9636_WIND TD9636_PRES TD9635_LAT TD9635_LON TD9635_WIND TD9635_PRES TD9635_ROCI NEUMANN_LAT NEUMANN_LON NEUMANN_CLASS NEUMANN_WIND NEUMANN_PRES MLC_LAT MLC_LON MLC_CLASS MLC_WIND MLC_PRES USA_GUST BOM_GUST BOM_GUST_PER REUNION_GUST REUNION_GUST_PER USA_SEAHGT USA_SEARAD_NE USA_SEARAD_SE USA_SEARAD_SW USA_SEARAD_NW STORM_SPEED STORM_DIR
1985298N12249 1985 107 EP MM XINA 1985-10-25 06:00:00 TS 12.0000 -111.500 25 hurdat_epa main 1078 1078 O_________O___ hurdat_epa EP221985 12.0000 -111.500 TD 25 -1 12.0000 -111.500 1 25 4 243
1985298N12249 1985 107 EP MM XINA 1985-10-25 09:00:00 TS 11.9015 -111.699 main 1101 1101 P_________P___ EP221985 11.9026 -111.708 TD 27 -1 11.8983 -111.674 1 27 4 243
1985298N12249 1985 107 EP MM XINA 1985-10-25 12:00:00 TS 11.8000 -111.900 30 hurdat_epa main 1124 1124 O_________O___ hurdat_epa EP221985 11.8000 -111.900 TD 30 -1 11.8000 -111.900 1 30 5 244
1985298N12249 1985 107 EP MM XINA 1985-10-25 15:00:00 TS 11.6963 -112.122 main 1147 1147 P_________P___ EP221985 11.6923 -112.090 TD 30 -1 11.7084 -112.220 1 30 6 250
1985298N12249 1985 107 EP MM XINA 1985-10-25 18:00:00 TS 11.6065 -112.456 30 hurdat_epa main 1185 1185 O_________P___ hurdat_epa EP221985 11.6000 -112.400 TD 30 -1 11.6261 -112.624 1 30 9 260
1985298N12249 1985 107 EP MM XINA 1985-10-25 21:00:00 TS 11.5403 -112.989 main 1230 1230 P_________P___ EP221985 11.5352 -112.955 TD 30 -1 11.5557 -113.091 1 30 11 265
1985298N12249 1985 107 EP MM XINA 1985-10-26 00:00:00 TS 11.5000 -113.600 30 hurdat_epa main 1276 1276 O_________O___ hurdat_epa EP221985 11.5000 -113.600 TD 30 -1 11.5000 -113.600 1 30 11 267
1985298N12249 1985 107 EP MM XINA 1985-10-26 03:00:00 TS 11.4901 -114.150 main 1315 1315 P_________P___ EP221985 11.4999 -114.157 TD 30 -1 11.4608 -114.126 1 30 11 269
1985298N12249 1985 107 EP MM XINA 1985-10-26 06:00:00 TS 11.4838 -114.696 30 hurdat_epa main 1361 1361 O_________P___ hurdat_epa EP221985 11.5000 -114.700 TD 30 -1 11.4352 -114.685 1 30 11 267
1985298N12249 1985 107 EP MM XINA 1985-10-26 09:00:00 TS 11.4417 -115.250 main 1404 1404 P_________P___ EP221985 11.4499 -115.250 TD 30 -1 11.4170 -115.251 1 30 11 266
1985298N12249 1985 107 EP MM XINA 1985-10-26 12:00:00 TS 11.4000 -115.800 30 hurdat_epa main 1426 1426 O_________O___ hurdat_epa EP221985 11.4000 -115.800 TD 30 -1 11.4000 -115.800 1 30 11 267
1985298N12249 1985 107 EP MM XINA 1985-10-26 15:00:00 TS 11.3897 -116.360 main 1454 1454 P_________P___ EP221985 11.4000 -116.372 TD 30 -1 11.3586 -116.321 1 30 11 269
1985298N12249 1985 107 EP MM XINA 1985-10-26 18:00:00 TS 11.3800 -116.879 30 hurdat_epa main 1480 1480 O_________P___ hurdat_epa EP221985 11.4000 -116.900 TD 30 -1 11.3198 -116.818 1 30 9 267
1985298N12249 1985 107 EP MM XINA 1985-10-26 21:00:00 TS 11.3364 -117.312 main 1511 1511 P_________P___ EP221985 11.3498 -117.323 TD 30 -1 11.2962 -117.280 1 30 8 264
1985298N12249 1985 107 EP MM XINA 1985-10-27 00:00:00 TS 11.3000 -117.700 30 hurdat_epa main 1533 1533 O_________O___ hurdat_epa EP221985 11.3000 -117.700 TD 30 -1 11.3000 -117.700 1 30 8 266
1985298N12249 1985 107 EP MM XINA 1985-10-27 03:00:00 TS 11.2850 -118.115 main 1556 1556 P_________P___ EP221985 11.2700 -118.123 TD 32 -1 11.3298 -118.092 1 33 8 272
1985298N12249 1985 107 EP MM XINA 1985-10-27 06:00:00 TS 11.3224 -118.485 35 hurdat_epa main 1580 1577 O_________P___ hurdat_epa EP221985 11.3000 -118.500 TS 35 0 11.3898 -118.440 1 37 7 284
1985298N12249 1985 107 EP MM XINA 1985-10-27 09:00:00 TS 11.4405 -118.771 main 1589 1577 P_________P___ EP221985 11.4274 -118.780 TS 40 0 11.4799 -118.742 1 41 6 299
1985298N12249 1985 107 EP MM XINA 1985-10-27 12:00:00 TS 11.6000 -119.000 45 hurdat_epa main 1583 1581 O_________O___ hurdat_epa EP221985 11.6000 -119.000 TS 45 0 11.6000 -119.000 2 45 5 304
1985298N12249 1985 107 EP MM XINA 1985-10-27 15:00:00 TS 11.7414 -119.218 main 1587 1578 P_________P___ EP221985 11.7425 -119.215 TS 45 0 11.7379 -119.226 2 47 5 307
1985298N12249 1985 107 EP MM XINA 1985-10-27 18:00:00 TS 11.9012 -119.403 45 hurdat_epa main 1583 1572 O_________P___ hurdat_epa EP221985 11.9000 -119.400 TS 45 0 11.9048 -119.410 2 50 5 316
1985298N12249 1985 107 EP MM XINA 1985-10-27 21:00:00 TS 12.0873 -119.565 main 1578 1568 P_________P___ EP221985 12.0850 -119.565 TS 50 0 12.0943 -119.564 2 52 5 324
1985298N12249 1985 107 EP MM XINA 1985-10-28 00:00:00 TS 12.3000 -119.700 55 hurdat_epa main 1568 1558 O_________O___ hurdat_epa EP221985 12.3000 -119.700 TS 55 0 12.3000 -119.700 2 55 5 332
1985298N12249 1985 107 EP MM XINA 1985-10-28 03:00:00 TS 12.5389 -119.808 main 1558 1539 P_________P___ EP221985 12.5500 -119.800 TS 57 0 12.5058 -119.833 2 56 5 337
1985298N12249 1985 107 EP MM XINA 1985-10-28 06:00:00 TS 12.7815 -119.913 60 hurdat_epa main 1539 1530 O_________P___ hurdat_epa EP221985 12.8000 -119.900 TS 60 0 12.7261 -119.954 2 57 5 332
1985298N12249 1985 107 EP MM XINA 1985-10-28 09:00:00 TS 12.9896 -120.050 main 1530 1528 P_________P___ EP221985 13.0000 -120.043 TS 60 0 12.9583 -120.072 2 58 5 326
1985298N12249 1985 107 EP MM XINA 1985-10-28 12:00:00 TS 13.2000 -120.200 60 hurdat_epa main 1528 1520 O_________O___ hurdat_epa EP221985 13.2000 -120.200 TS 60 0 13.2000 -120.200 2 60 5 327
1985298N12249 1985 107 EP MM XINA 1985-10-28 15:00:00 TS 13.4361 -120.349 main 1520 1511 P_________P___ EP221985 13.4350 -120.350 TS 65 1 13.4394 -120.348 2 65 6 330
1985298N12249 1985 107 EP MM XINA 1985-10-28 18:00:00 TS 13.7000 -120.500 70 hurdat_epa main 1511 1491 O_________O___ hurdat_epa EP221985 13.7000 -120.500 HU 70 1 13.7000 -120.500 3 70 6 332
1985298N12249 1985 107 EP MM XINA 1985-10-28 21:00:00 TS 13.9855 -120.651 main 1497 1476 P_________P___ EP221985 13.9850 -120.650 HU 70 1 13.9870 -120.655 3 70 7 334
1985298N12249 1985 107 EP MM XINA 1985-10-29 00:00:00 TS 14.3000 -120.800 70 hurdat_epa main 1476 1456 O_________O___ hurdat_epa EP221985 14.3000 -120.800 HU 70 1 14.3000 -120.800 4 70 7 336
1985298N12249 1985 107 EP MM XINA 1985-10-29 03:00:00 TS 14.6403 -120.955 main 1463 1435 P_________P___ EP221985 14.6425 -120.965 HU 67 1 14.6338 -120.926 4 75 8 339
1985298N12249 1985 107 EP MM XINA 1985-10-29 06:00:00 TS 14.9966 -121.084 65 hurdat_epa main 1435 1409 O_________P___ hurdat_epa EP221985 15.0000 -121.100 HU 65 1 14.9863 -121.034 4 80 7 344
1985298N12249 1985 107 EP MM XINA 1985-10-29 09:00:00 TS 15.3433 -121.155 main 1416 1382 P_________P___ EP221985 15.3425 -121.165 HU 77 1 15.3457 -121.125 4 85 7 351
1985298N12249 1985 107 EP MM XINA 1985-10-29 12:00:00 TS 15.7000 -121.200 90 hurdat_epa main 1382 1357 O_________O___ hurdat_epa EP221985 15.7000 -121.200 HU 90 2 15.7000 -121.200 4 90 8 352
1985298N12249 1985 107 EP MM XINA 1985-10-29 15:00:00 TS 16.1004 -121.264 main 1357 1324 P_________P___ EP221985 16.1150 -121.250 HU 95 2 16.0565 -121.305 4 90 8 351
1985298N12249 1985 107 EP MM XINA 1985-10-29 18:00:00 TS 16.4756 -121.322 100 hurdat_epa main 1324 1316 O_________P___ hurdat_epa EP221985 16.5000 -121.300 HU 100 3 16.4024 -121.390 4 90 7 349
1985298N12249 1985 107 EP MM XINA 1985-10-29 21:00:00 TS 16.7542 -121.398 main 1308 1292 P_________P___ EP221985 16.7650 -121.387 HU 95 2 16.7221 -121.430 4 90 5 351
1985298N12249 1985 107 EP MM XINA 1985-10-30 00:00:00 TS 17.0000 -121.400 90 hurdat_epa main 1292 1262 O_________O___ hurdat_epa EP221985 17.0000 -121.400 HU 90 2 17.0000 -121.400 4 90 6 15
1985298N12249 1985 107 EP MM XINA 1985-10-30 03:00:00 TS 17.3092 -121.248 main 1254 1215 P_________P___ EP221985 17.3300 -121.238 HU 90 2 17.2466 -121.280 4 90 7 33
1985298N12249 1985 107 EP MM XINA 1985-10-30 06:00:00 TS 17.5619 -121.023 90 hurdat_epa main 1215 1192 O_________P___ hurdat_epa EP221985 17.6000 -121.000 HU 90 2 17.4475 -121.091 4 90 5 48
1985298N12249 1985 107 EP MM XINA 1985-10-30 09:00:00 TS 17.6711 -120.825 main 1192 1177 P_________P___ EP221985 17.6949 -120.815 HU 90 2 17.5997 -120.855 4 90 4 71
1985298N12249 1985 107 EP MM XINA 1985-10-30 12:00:00 TS 17.7000 -120.600 90 hurdat_epa main 1177 1154 O_________O___ hurdat_epa EP221985 17.7000 -120.600 HU 90 2 17.7000 -120.600 4 90 5 84
1985298N12249 1985 107 EP MM XINA 1985-10-30 15:00:00 TS 17.7254 -120.310 main 1154 1132 P_________P___ EP221985 17.7076 -120.300 HU 85 2 17.7789 -120.340 4 83 6 87
1985298N12249 1985 107 EP MM XINA 1985-10-30 18:00:00 TS 17.7263 -120.017 80 hurdat_epa main 1132 1117 O_________P___ hurdat_epa EP221985 17.7000 -120.000 HU 80 1 17.8052 -120.070 4 77 5 89
1985298N12249 1985 107 EP MM XINA 1985-10-30 21:00:00 TS 17.7366 -119.781 main 1117 1102 P_________P___ EP221985 17.7225 -119.770 HU 72 1 17.7789 -119.815 4 71 4 94
1985298N12249 1985 107 EP MM XINA 1985-10-31 00:00:00 TS 17.7000 -119.600 65 hurdat_epa main 1102 1095 O_________O___ hurdat_epa EP221985 17.7000 -119.600 HU 65 1 17.7000 -119.600 4 65 3 118
1985298N12249 1985 107 EP MM XINA 1985-10-31 03:00:00 TS 17.5838 -119.478 main 1103 1103 P_________P___ EP221985 17.5800 -119.485 HU 65 1 17.5954 -119.457 4 65 4 145
1985298N12249 1985 107 EP MM XINA 1985-10-31 06:00:00 TS 17.4099 -119.389 65 hurdat_epa main 1113 1113 O_________P___ hurdat_epa EP221985 17.4000 -119.400 HU 65 1 17.4398 -119.355 4 65 4 154
1985298N12249 1985 107 EP MM XINA 1985-10-31 09:00:00 TS 17.2267 -119.294 main 1122 1122 P_________P___ EP221985 17.2225 -119.300 HU 65 1 17.2392 -119.276 4 65 5 156
1985298N12249 1985 107 EP MM XINA 1985-10-31 12:00:00 TS 17.0000 -119.200 65 hurdat_epa main 1133 1133 O_________O___ hurdat_epa EP221985 17.0000 -119.200 HU 65 1 17.0000 -119.200 4 65 5 160
1985298N12249 1985 107 EP MM XINA 1985-10-31 15:00:00 TS 16.7212 -119.098 main 1152 1152 P_________P___ EP221985 16.7150 -119.100 HU 55 0 16.7400 -119.092 4 60 6 162
1985298N12249 1985 107 EP MM XINA 1985-10-31 18:00:00 TS 16.4112 -118.996 45 hurdat_epa main 1173 1173 O_________P___ hurdat_epa EP221985 16.4000 -119.000 TS 45 0 16.4450 -118.985 4 55 6 162
1985298N12249 1985 107 EP MM XINA 1985-10-31 21:00:00 TS 16.1181 -118.896 main 1194 1194 P_________P___ EP221985 16.1150 -118.900 TS 45 0 16.1275 -118.886 4 50 6 163
1985298N12249 1985 107 EP MM XINA 1985-11-01 00:00:00 TS 15.8000 -118.800 45 hurdat_epa main 1215 1215 O_________O___ hurdat_epa EP221985 15.8000 -118.800 TS 45 0 15.8000 -118.800 2 45 7 165
1985298N12249 1985 107 EP MM XINA 1985-11-01 03:00:00 TS 15.4119 -118.697 main 1239 1239 P_________P___ EP221985 15.3925 -118.685 TS 37 0 15.4700 -118.732 2 41 8 167
1985298N12249 1985 107 EP MM XINA 1985-11-01 06:00:00 TS 15.0337 -118.619 30 hurdat_epa main 1263 1263 O_________P___ hurdat_epa EP221985 15.0000 -118.600 TD 30 -1 15.1350 -118.678 2 37 7 172
1985298N12249 1985 107 EP MM XINA 1985-11-01 09:00:00 TS 14.7475 -118.598 main 1288 1288 P_________P___ EP221985 14.7275 -118.585 TD 30 -1 14.8075 -118.635 2 33 5 180
1985298N12249 1985 107 EP MM XINA 1985-11-01 12:00:00 TS 14.5000 -118.600 30 hurdat_epa main 1304 1304 O_________O___ hurdat_epa EP221985 14.5000 -118.600 TD 30 -1 14.5000 -118.600 1 30 5 0
1985298N12249 1985 107 EP MM XINA 1985-11-01 15:00:00 TS 14.2405 -118.599 main 1329 1329 P_________P___ EP221985 14.2500 -118.608 TD 30 -1 14.2122 -118.572 1 30 5 0
1985298N12249 1985 107 EP MM XINA 1985-11-01 18:00:00 TS 13.9869 -118.588 30 hurdat_epa main 1346 1346 O_________P___ hurdat_epa EP221985 14.0000 -118.600 TD 30 -1 13.9475 -118.550 1 30 5 177
1985298N12249 1985 107 EP MM XINA 1985-11-01 21:00:00 TS 13.7285 -118.550 main 1371 1364 P_________P___ EP221985 13.7350 -118.557 TD 30 -1 13.7091 -118.528 1 30 5 170
1985298N12249 1985 107 EP MM XINA 1985-11-02 00:00:00 TS 13.5000 -118.500 30 hurdat_epa main 1381 1381 O_________O___ hurdat_epa EP221985 13.5000 -118.500 TD 30 -1 13.5000 -118.500 1 30 4 166
1985298N12249 1985 107 EP MM XINA 1985-11-02 03:00:00 TS 13.3316 -118.453 main 1399 1392 P_________P___ EP221985 13.3350 -118.450 TD 32 -1 13.3212 -118.461 1 30 3 163
1985298N12249 1985 107 EP MM XINA 1985-11-02 06:00:00 TS 13.1925 -118.404 35 hurdat_epa main 1401 1401 O_________P___ hurdat_epa EP221985 13.2000 -118.400 TS 35 0 13.1700 -118.415 1 30 3 163
1985298N12249 1985 107 EP MM XINA 1985-11-02 09:00:00 TS 13.0459 -118.358 main 1419 1412 P_________P___ EP221985 13.0500 -118.358 TS 32 -1 13.0337 -118.361 1 30 3 160
1985298N12249 1985 107 EP MM XINA 1985-11-02 12:00:00 TS 12.9000 -118.300 30 hurdat_epa main 1421 1421 O_________O___ hurdat_epa EP221985 12.9000 -118.300 TD 30 -1 12.9000 -118.300 1 30 3 153
1985298N12249 1985 107 EP MM XINA 1985-11-02 15:00:00 TS 12.7500 -118.207 main 1424 1424 P_________P___ EP221985 12.7500 -118.200 TD 27 -1 12.7500 -118.228 1 28 4 149
1985298N12249 1985 107 EP MM XINA 1985-11-02 18:00:00 TS 12.6000 -118.113 25 hurdat_epa main 1435 1435 O_________P___ hurdat_epa EP221985 12.6000 -118.100 TD 25 -1 12.6000 -118.150 1 27 3 153
1985298N12249 1985 107 EP MM XINA 1985-11-02 21:00:00 TS 12.4444 -118.050 main 1447 1447 P_________P___ EP221985 12.4425 -118.043 TD 25 -1 12.4500 -118.072 1 26 3 160
1985298N12249 1985 107 EP MM XINA 1985-11-03 00:00:00 TS 12.3000 -118.000 25 hurdat_epa main 1457 1457 O_________O___ hurdat_epa EP221985 12.3000 -118.000 TD 25 -1 12.3000 -118.000 1 25 3 157
1985298N12249 1985 107 EP MM XINA 1985-11-03 03:00:00 TS 12.1952 -117.945 main 1460 1460 P_________P___ EP221985 12.2075 -117.950 TD 25 -1 12.1581 -117.931 1 25 2 155
1985298N12249 1985 107 EP MM XINA 1985-11-03 06:00:00 TS 12.0787 -117.893 25 hurdat_epa main 1469 1469 O_________P___ hurdat_epa EP221985 12.1000 -117.900 TD 25 -1 12.0150 -117.870 1 25 3 160
1985298N12249 1985 107 EP MM XINA 1985-11-03 09:00:00 TS 11.9023 -117.838 main 1482 1482 P_________P___ EP221985 11.9150 -117.842 TD 25 -1 11.8644 -117.824 1 25 4 166
1985298N12249 1985 107 EP MM XINA 1985-11-03 12:00:00 TS 11.7000 -117.800 25 hurdat_epa main 1501 1501 O_________O___ hurdat_epa EP221985 11.7000 -117.800 TD 25 -1 11.7000 -117.800 1 25 4 172
1985298N12249 1985 107 EP MM XINA 1985-11-03 15:00:00 TS 11.5026 -117.784 main 1520 1520 P_________P___ EP221985 11.5000 -117.785 TD 25 -1 11.5103 -117.779 1 25 4 0
1985298N12249 1985 107 EP MM XINA 1985-11-03 18:00:00 TS 11.3019 -117.796 25 hurdat_epa main 1539 1539 O_________P___ hurdat_epa EP221985 11.3000 -117.800 TD 25 -1 11.3074 -117.782 1 25 4 184
1985298N12249 1985 107 EP MM XINA 1985-11-03 21:00:00 TS 11.1002 -117.826 main 1558 1558 P_________P___ EP221985 11.1000 -117.827 TD 25 -1 11.1009 -117.820 1 25 4 194
1985298N12249 1985 107 EP MM XINA 1985-11-04 00:00:00 TS 10.9000 -117.900 25 hurdat_epa main 1583 1583 O_________O___ hurdat_epa EP221985 10.9000 -117.900 TD 25 -1 10.9000 -117.900 1 25 5 206
1985298N12249 1985 107 EP MM XINA 1985-11-04 03:00:00 TS 10.6937 -118.026 main 1608 1608 P_________P___ EP221985 10.6925 -118.028 TD 25 -1 10.6975 -118.020 1 25 5 216
1985298N12249 1985 107 EP MM XINA 1985-11-04 06:00:00 TS 10.5012 -118.196 25 hurdat_epa main 1638 1638 O_________P___ hurdat_epa EP221985 10.5000 -118.200 TD 25 -1 10.5050 -118.183 1 25 5 224
1985298N12249 1985 107 EP MM XINA 1985-11-04 09:00:00 TS 10.3294 -118.384 main 1668 1668 P_________P___ EP221985 10.3275 -118.385 TD 25 -1 10.3350 -118.379 1 25 5 233
1985298N12249 1985 107 EP MM XINA 1985-11-04 12:00:00 TS 10.2000 -118.600 25 hurdat_epa main 1689 1689 O_________O___ hurdat_epa EP221985 10.2000 -118.600 TD 25 -1 10.2000 -118.600 1 25 5 246
1985298N12249 1985 107 EP MM XINA 1985-11-04 15:00:00 TS 10.1274 -118.836 main 1711 1711 P_________P___ EP221985 10.1350 -118.842 TD 25 -1 10.1048 -118.818 1 25 5 257
1985298N12249 1985 107 EP MM XINA 1985-11-04 18:00:00 TS 10.0864 -119.090 25 hurdat_epa main 1728 1728 O_________P___ hurdat_epa EP221985 10.1000 -119.100 TD 25 -1 10.0454 -119.059 1 25 5 259
1985298N12249 1985 107 EP MM XINA 1985-11-04 21:00:00 TS 10.0352 -119.337 main 1750 1750 P_________P___ EP221985 10.0425 -119.343 TD 25 -1 10.0133 -119.320 1 25 5 260
1985298N12249 1985 107 EP MM XINA 1985-11-05 00:00:00 TS 10.0000 -119.600 25 hurdat_epa main 1768 1768 O_________O___ hurdat_epa EP221985 10.0000 -119.600 TD 25 -1 10.0000 -119.600 1 25 5 265
1985298N12249 1985 107 EP MM XINA 1985-11-05 03:00:00 TS 9.99193 -119.891 main 1786 1786 P_________P___ EP221985 9.99007 -119.890 TD 25 -1 9.99751 -119.896 1 25 6 270
1985298N12249 1985 107 EP MM XINA 1985-11-05 06:00:00 TS 10.0000 -120.200 25 hurdat_epa main 1805 O_________O___ hurdat_epa EP221985 10.0000 -120.200 TD 25 -1 10.0000 -120.200 1 25 6 272

About IBTrACS Database

This database is a web-friendly format of International Best Track Archive for Climate Stewardship (IBTrACS), a global best track data archive curated by NOAA dating back to 1842.

Updated: 2021-10-25